sensor_id;sensor_type;location;lat;lon;timestamp;temperature;humidity
17092;DHT22;8661;45.700;4.880;2022-07-12T00:02:05;21.90;88.70
17092;DHT22;8661;45.700;4.880;2022-07-12T00:04:32;21.80;89.40
17092;DHT22;8661;45.700;4.880;2022-07-12T00:06:59;21.80;90.00
17092;DHT22;8661;45.700;4.880;2022-07-12T00:09:26;21.80;90.10
17092;DHT22;8661;45.700;4.880;2022-07-12T00:11:53;21.70;90.30
17092;DHT22;8661;45.700;4.880;2022-07-12T00:14:20;21.70;90.50
17092;DHT22;8661;45.700;4.880;2022-07-12T00:16:49;21.60;90.70
17092;DHT22;8661;45.700;4.880;2022-07-12T00:19:16;21.60;90.80
17092;DHT22;8661;45.700;4.880;2022-07-12T00:21:43;21.60;90.90
17092;DHT22;8661;45.700;4.880;2022-07-12T00:24:10;21.50;91.00
17092;DHT22;8661;45.700;4.880;2022-07-12T00:26:37;21.50;91.30
17092;DHT22;8661;45.700;4.880;2022-07-12T00:29:04;21.50;91.30
17092;DHT22;8661;45.700;4.880;2022-07-12T00:31:32;21.50;91.40
17092;DHT22;8661;45.700;4.880;2022-07-12T00:34:00;21.50;91.50
17092;DHT22;8661;45.700;4.880;2022-07-12T00:36:27;21.40;91.50
17092;DHT22;8661;45.700;4.880;2022-07-12T00:38:54;21.40;91.80
17092;DHT22;8661;45.700;4.880;2022-07-12T00:41:22;21.30;92.10
17092;DHT22;8661;45.700;4.880;2022-07-12T00:43:49;21.30;92.80
17092;DHT22;8661;45.700;4.880;2022-07-12T00:46:20;21.30;92.50
17092;DHT22;8661;45.700;4.880;2022-07-12T00:48:47;21.30;92.60
17092;DHT22;8661;45.700;4.880;2022-07-12T00:51:16;21.20;92.90
17092;DHT22;8661;45.700;4.880;2022-07-12T00:53:43;21.20;93.10
17092;DHT22;8661;45.700;4.880;2022-07-12T00:56:12;21.20;93.20
17092;DHT22;8661;45.700;4.880;2022-07-12T00:58:40;21.10;93.40
17092;DHT22;8661;45.700;4.880;2022-07-12T01:01:08;21.10;93.70
17092;DHT22;8661;45.700;4.880;2022-07-12T01:03:35;21.00;93.90
17092;DHT22;8661;45.700;4.880;2022-07-12T01:06:03;20.90;94.20
17092;DHT22;8661;45.700;4.880;2022-07-12T01:08:32;20.90;94.50
17092;DHT22;8661;45.700;4.880;2022-07-12T01:11:00;20.90;94.60
17092;DHT22;8661;45.700;4.880;2022-07-12T01:13:27;20.90;95.20
17092;DHT22;8661;45.700;4.880;2022-07-12T01:15:54;20.80;95.10
17092;DHT22;8661;45.700;4.880;2022-07-12T01:18:22;20.80;95.30
17092;DHT22;8661;45.700;4.880;2022-07-12T01:20:49;20.80;95.60
17092;DHT22;8661;45.700;4.880;2022-07-12T01:23:17;20.70;95.90
17092;DHT22;8661;45.700;4.880;2022-07-12T01:25:44;20.70;96.20
17092;DHT22;8661;45.700;4.880;2022-07-12T01:28:11;20.70;96.40
17092;DHT22;8661;45.700;4.880;2022-07-12T01:30:40;20.70;96.80
17092;DHT22;8661;45.700;4.880;2022-07-12T01:33:07;20.70;96.40
17092;DHT22;8661;45.700;4.880;2022-07-12T01:35:34;20.70;96.40
17092;DHT22;8661;45.700;4.880;2022-07-12T01:38:02;20.70;96.40
17092;DHT22;8661;45.700;4.880;2022-07-12T01:40:30;20.60;96.40
17092;DHT22;8661;45.700;4.880;2022-07-12T01:42:57;20.60;96.60
17092;DHT22;8661;45.700;4.880;2022-07-12T01:45:24;20.50;96.60
17092;DHT22;8661;45.700;4.880;2022-07-12T01:47:51;20.50;96.60
17092;DHT22;8661;45.700;4.880;2022-07-12T01:50:18;20.50;96.60
17092;DHT22;8661;45.700;4.880;2022-07-12T01:52:45;20.50;96.80
17092;DHT22;8661;45.700;4.880;2022-07-12T01:55:12;20.50;97.00
17092;DHT22;8661;45.700;4.880;2022-07-12T01:57:41;20.50;96.90
17092;DHT22;8661;45.700;4.880;2022-07-12T02:00:10;20.50;96.70
17092;DHT22;8661;45.700;4.880;2022-07-12T02:02:38;20.60;96.60
17092;DHT22;8661;45.700;4.880;2022-07-12T02:05:06;20.60;96.60
17092;DHT22;8661;45.700;4.880;2022-07-12T02:07:33;20.50;96.80
17092;DHT22;8661;45.700;4.880;2022-07-12T02:10:00;20.50;97.10
17092;DHT22;8661;45.700;4.880;2022-07-12T02:12:27;20.50;97.40
17092;DHT22;8661;45.700;4.880;2022-07-12T02:14:55;20.40;97.70
17092;DHT22;8661;45.700;4.880;2022-07-12T02:17:22;20.40;97.80
17092;DHT22;8661;45.700;4.880;2022-07-12T02:19:49;20.40;98.10
17092;DHT22;8661;45.700;4.880;2022-07-12T02:22:16;20.30;98.40
17092;DHT22;8661;45.700;4.880;2022-07-12T02:24:43;20.30;98.50
17092;DHT22;8661;45.700;4.880;2022-07-12T02:27:10;20.30;98.60
17092;DHT22;8661;45.700;4.880;2022-07-12T02:29:37;20.30;98.90
17092;DHT22;8661;45.700;4.880;2022-07-12T02:32:06;20.30;98.90
17092;DHT22;8661;45.700;4.880;2022-07-12T02:34:32;20.30;99.20
17092;DHT22;8661;45.700;4.880;2022-07-12T02:37:00;20.20;99.40
17092;DHT22;8661;45.700;4.880;2022-07-12T02:39:28;20.20;99.60
17092;DHT22;8661;45.700;4.880;2022-07-12T02:41:55;20.20;99.90
17092;DHT22;8661;45.700;4.880;2022-07-12T02:44:22;20.20;99.90
17092;DHT22;8661;45.700;4.880;2022-07-12T02:46:49;20.20;99.90
17092;DHT22;8661;45.700;4.880;2022-07-12T02:49:17;20.20;99.90
17092;DHT22;8661;45.700;4.880;2022-07-12T02:51:44;20.10;99.90
17092;DHT22;8661;45.700;4.880;2022-07-12T02:54:11;20.10;99.90
17092;DHT22;8661;45.700;4.880;2022-07-12T02:56:38;20.10;99.90
17092;DHT22;8661;45.700;4.880;2022-07-12T02:59:05;20.10;99.90
17092;DHT22;8661;45.700;4.880;2022-07-12T03:01:32;20.10;99.90
17092;DHT22;8661;45.700;4.880;2022-07-12T03:03:58;20.10;99.90
17092;DHT22;8661;45.700;4.880;2022-07-12T03:06:27;20.10;99.90
17092;DHT22;8661;45.700;4.880;2022-07-12T03:08:54;20.00;99.90
17092;DHT22;8661;45.700;4.880;2022-07-12T03:11:23;20.00;99.90
17092;DHT22;8661;45.700;4.880;2022-07-12T03:13:50;20.00;99.90
17092;DHT22;8661;45.700;4.880;2022-07-12T03:16:17;20.00;99.90
17092;DHT22;8661;45.700;4.880;2022-07-12T03:18:44;20.00;99.90
17092;DHT22;8661;45.700;4.880;2022-07-12T03:21:10;19.90;99.90
17092;DHT22;8661;45.700;4.880;2022-07-12T03:23:39;19.80;99.90
17092;DHT22;8661;45.700;4.880;2022-07-12T03:26:07;19.80;99.90
17092;DHT22;8661;45.700;4.880;2022-07-12T03:28:34;19.80;99.90
17092;DHT22;8661;45.700;4.880;2022-07-12T03:31:01;19.80;99.90
17092;DHT22;8661;45.700;4.880;2022-07-12T03:33:28;19.70;99.90
17092;DHT22;8661;45.700;4.880;2022-07-12T03:35:54;19.70;99.90
17092;DHT22;8661;45.700;4.880;2022-07-12T03:38:21;19.70;99.90
17092;DHT22;8661;45.700;4.880;2022-07-12T03:40:50;19.70;99.90
17092;DHT22;8661;45.700;4.880;2022-07-12T03:43:17;19.70;99.90
17092;DHT22;8661;45.700;4.880;2022-07-12T03:45:43;19.80;99.90
17092;DHT22;8661;45.700;4.880;2022-07-12T03:48:11;19.80;99.90
17092;DHT22;8661;45.700;4.880;2022-07-12T03:50:38;19.80;99.90
17092;DHT22;8661;45.700;4.880;2022-07-12T03:53:04;19.80;99.90
17092;DHT22;8661;45.700;4.880;2022-07-12T03:55:31;19.70;99.90
17092;DHT22;8661;45.700;4.880;2022-07-12T03:58:00;19.80;99.90
17092;DHT22;8661;45.700;4.880;2022-07-12T04:00:26;19.80;99.90
17092;DHT22;8661;45.700;4.880;2022-07-12T04:02:53;19.90;99.90
17092;DHT22;8661;45.700;4.880;2022-07-12T04:05:20;19.90;99.90
17092;DHT22;8661;45.700;4.880;2022-07-12T04:07:51;19.90;99.90
17092;DHT22;8661;45.700;4.880;2022-07-12T04:10:19;19.90;99.90
17092;DHT22;8661;45.700;4.880;2022-07-12T04:12:46;19.90;99.90
17092;DHT22;8661;45.700;4.880;2022-07-12T04:15:14;19.90;99.90
17092;DHT22;8661;45.700;4.880;2022-07-12T04:17:41;19.90;99.90
17092;DHT22;8661;45.700;4.880;2022-07-12T04:20:09;19.90;99.90
17092;DHT22;8661;45.700;4.880;2022-07-12T04:22:37;19.90;99.90
17092;DHT22;8661;45.700;4.880;2022-07-12T04:25:05;19.90;99.90
17092;DHT22;8661;45.700;4.880;2022-07-12T04:27:32;20.00;99.90
17092;DHT22;8661;45.700;4.880;2022-07-12T04:30:02;19.90;99.90
17092;DHT22;8661;45.700;4.880;2022-07-12T04:32:31;19.90;99.90
17092;DHT22;8661;45.700;4.880;2022-07-12T04:34:58;19.90;99.90
17092;DHT22;8661;45.700;4.880;2022-07-12T04:37:25;20.00;99.90
17092;DHT22;8661;45.700;4.880;2022-07-12T04:39:52;20.00;99.90
17092;DHT22;8661;45.700;4.880;2022-07-12T04:42:18;19.90;99.90
17092;DHT22;8661;45.700;4.880;2022-07-12T04:44:45;19.90;99.90
17092;DHT22;8661;45.700;4.880;2022-07-12T04:47:12;19.90;99.90
17092;DHT22;8661;45.700;4.880;2022-07-12T04:49:41;20.00;99.90
17092;DHT22;8661;45.700;4.880;2022-07-12T04:52:08;20.00;99.90
17092;DHT22;8661;45.700;4.880;2022-07-12T04:54:35;20.10;99.90
17092;DHT22;8661;45.700;4.880;2022-07-12T04:57:02;20.10;99.90
17092;DHT22;8661;45.700;4.880;2022-07-12T04:59:29;20.20;99.90
17092;DHT22;8661;45.700;4.880;2022-07-12T05:01:56;20.20;99.90
17092;DHT22;8661;45.700;4.880;2022-07-12T05:04:23;20.30;99.90
17092;DHT22;8661;45.700;4.880;2022-07-12T05:06:51;20.60;99.90
17092;DHT22;8661;45.700;4.880;2022-07-12T05:09:24;21.20;99.90
17092;DHT22;8661;45.700;4.880;2022-07-12T05:11:51;21.40;99.90
17092;DHT22;8661;45.700;4.880;2022-07-12T05:14:24;21.40;99.90
17092;DHT22;8661;45.700;4.880;2022-07-12T05:16:51;21.40;99.90
17092;DHT22;8661;45.700;4.880;2022-07-12T05:19:18;21.40;99.90
17092;DHT22;8661;45.700;4.880;2022-07-12T05:21:44;21.40;99.90
17092;DHT22;8661;45.700;4.880;2022-07-12T05:24:13;21.50;99.90
17092;DHT22;8661;45.700;4.880;2022-07-12T05:26:40;21.60;99.90
17092;DHT22;8661;45.700;4.880;2022-07-12T05:29:08;21.70;99.90
17092;DHT22;8661;45.700;4.880;2022-07-12T05:31:35;21.80;99.90
17092;DHT22;8661;45.700;4.880;2022-07-12T05:34:02;21.80;99.90
17092;DHT22;8661;45.700;4.880;2022-07-12T05:36:29;21.90;99.90
17092;DHT22;8661;45.700;4.880;2022-07-12T05:38:56;22.10;99.70
17092;DHT22;8661;45.700;4.880;2022-07-12T05:41:24;22.20;99.00
17092;DHT22;8661;45.700;4.880;2022-07-12T05:43:51;22.30;98.50
17092;DHT22;8661;45.700;4.880;2022-07-12T05:46:18;22.40;97.90
17092;DHT22;8661;45.700;4.880;2022-07-12T05:48:45;22.60;97.70
17092;DHT22;8661;45.700;4.880;2022-07-12T05:51:12;22.80;97.60
17092;DHT22;8661;45.700;4.880;2022-07-12T05:53:56;23.00;97.30
17092;DHT22;8661;45.700;4.880;2022-07-12T05:56:24;23.30;96.90
17092;DHT22;8661;45.700;4.880;2022-07-12T05:58:51;23.40;96.00
17092;DHT22;8661;45.700;4.880;2022-07-12T06:01:18;23.50;95.80
17092;DHT22;8661;45.700;4.880;2022-07-12T06:03:45;23.80;95.20
17092;DHT22;8661;45.700;4.880;2022-07-12T06:06:12;23.90;94.20
17092;DHT22;8661;45.700;4.880;2022-07-12T06:08:38;24.20;94.00
17092;DHT22;8661;45.700;4.880;2022-07-12T06:11:06;24.40;93.70
17092;DHT22;8661;45.700;4.880;2022-07-12T06:13:34;24.70;93.30
17092;DHT22;8661;45.700;4.880;2022-07-12T06:16:01;25.00;92.40
17092;DHT22;8661;45.700;4.880;2022-07-12T06:18:31;25.20;91.30
17092;DHT22;8661;45.700;4.880;2022-07-12T06:20:58;25.40;91.10
17092;DHT22;8661;45.700;4.880;2022-07-12T06:23:25;25.50;90.60
17092;DHT22;8661;45.700;4.880;2022-07-12T06:25:52;25.70;89.50
17092;DHT22;8661;45.700;4.880;2022-07-12T06:28:19;25.90;87.20
17092;DHT22;8661;45.700;4.880;2022-07-12T06:30:47;25.90;86.90
17092;DHT22;8661;45.700;4.880;2022-07-12T06:33:14;26.00;86.30
17092;DHT22;8661;45.700;4.880;2022-07-12T06:35:41;26.10;85.30
17092;DHT22;8661;45.700;4.880;2022-07-12T06:38:08;26.30;84.50
17092;DHT22;8661;45.700;4.880;2022-07-12T06:40:35;26.60;84.30
17092;DHT22;8661;45.700;4.880;2022-07-12T06:43:02;27.00;83.90
17092;DHT22;8661;45.700;4.880;2022-07-12T06:45:30;27.10;83.10
17092;DHT22;8661;45.700;4.880;2022-07-12T06:47:58;27.40;82.20
17092;DHT22;8661;45.700;4.880;2022-07-12T06:50:25;27.50;81.30
17092;DHT22;8661;45.700;4.880;2022-07-12T06:52:52;27.80;81.00
17092;DHT22;8661;45.700;4.880;2022-07-12T06:55:19;28.10;79.80
17092;DHT22;8661;45.700;4.880;2022-07-12T06:57:45;28.30;79.40
17092;DHT22;8661;45.700;4.880;2022-07-12T07:00:13;28.60;78.60
17092;DHT22;8661;45.700;4.880;2022-07-12T07:02:40;28.80;77.10
17092;DHT22;8661;45.700;4.880;2022-07-12T07:05:09;29.00;76.40
17092;DHT22;8661;45.700;4.880;2022-07-12T07:07:37;29.20;74.70
17092;DHT22;8661;45.700;4.880;2022-07-12T07:10:05;29.40;73.90
17092;DHT22;8661;45.700;4.880;2022-07-12T07:12:32;29.70;73.90
17092;DHT22;8661;45.700;4.880;2022-07-12T07:14:59;30.00;73.20
17092;DHT22;8661;45.700;4.880;2022-07-12T07:17:25;30.20;72.10
17092;DHT22;8661;45.700;4.880;2022-07-12T07:19:52;30.60;71.40
17092;DHT22;8661;45.700;4.880;2022-07-12T07:22:21;30.80;70.90
17092;DHT22;8661;45.700;4.880;2022-07-12T07:24:48;31.00;70.30
17092;DHT22;8661;45.700;4.880;2022-07-12T07:27:15;31.10;68.70
17092;DHT22;8661;45.700;4.880;2022-07-12T07:29:42;31.20;68.90
17092;DHT22;8661;45.700;4.880;2022-07-12T07:32:27;31.40;68.50
17092;DHT22;8661;45.700;4.880;2022-07-12T07:34:54;31.50;67.00
17092;DHT22;8661;45.700;4.880;2022-07-12T07:37:23;31.80;66.50
17092;DHT22;8661;45.700;4.880;2022-07-12T07:39:50;31.90;65.60
17092;DHT22;8661;45.700;4.880;2022-07-12T07:42:17;31.80;65.80
17092;DHT22;8661;45.700;4.880;2022-07-12T07:44:44;32.10;64.60
17092;DHT22;8661;45.700;4.880;2022-07-12T07:47:11;32.40;64.60
17092;DHT22;8661;45.700;4.880;2022-07-12T07:49:37;32.70;63.20
17092;DHT22;8661;45.700;4.880;2022-07-12T07:52:05;33.00;62.80
17092;DHT22;8661;45.700;4.880;2022-07-12T07:54:33;33.00;61.30
17092;DHT22;8661;45.700;4.880;2022-07-12T07:57:00;33.00;61.50
17092;DHT22;8661;45.700;4.880;2022-07-12T07:59:27;33.10;60.70
17092;DHT22;8661;45.700;4.880;2022-07-12T08:01:54;33.30;61.60
17092;DHT22;8661;45.700;4.880;2022-07-12T08:04:21;33.40;60.50
17092;DHT22;8661;45.700;4.880;2022-07-12T08:06:49;33.80;60.20
17092;DHT22;8661;45.700;4.880;2022-07-12T08:09:16;33.40;57.70
17092;DHT22;8661;45.700;4.880;2022-07-12T08:11:45;33.20;59.10
17092;DHT22;8661;45.700;4.880;2022-07-12T08:14:12;33.50;59.50
17092;DHT22;8661;45.700;4.880;2022-07-12T08:16:39;33.70;59.70
17092;DHT22;8661;45.700;4.880;2022-07-12T08:19:05;33.90;59.30
17092;DHT22;8661;45.700;4.880;2022-07-12T08:21:33;33.80;58.60
17092;DHT22;8661;45.700;4.880;2022-07-12T08:24:00;33.60;59.90
17092;DHT22;8661;45.700;4.880;2022-07-12T08:26:27;34.50;59.50
17092;DHT22;8661;45.700;4.880;2022-07-12T08:28:55;34.90;58.60
17092;DHT22;8661;45.700;4.880;2022-07-12T08:31:22;35.00;58.70
17092;DHT22;8661;45.700;4.880;2022-07-12T08:33:49;35.40;58.10
17092;DHT22;8661;45.700;4.880;2022-07-12T08:36:16;35.40;56.80
17092;DHT22;8661;45.700;4.880;2022-07-12T08:38:43;35.60;56.40
17092;DHT22;8661;45.700;4.880;2022-07-12T08:41:11;35.40;56.70
17092;DHT22;8661;45.700;4.880;2022-07-12T08:43:42;35.90;55.80
17092;DHT22;8661;45.700;4.880;2022-07-12T08:46:11;36.20;55.70
17092;DHT22;8661;45.700;4.880;2022-07-12T08:48:39;36.30;55.80
17092;DHT22;8661;45.700;4.880;2022-07-12T08:51:08;36.60;55.80
17092;DHT22;8661;45.700;4.880;2022-07-12T08:53:37;36.80;53.70
17092;DHT22;8661;45.700;4.880;2022-07-12T08:56:05;36.80;53.30
17092;DHT22;8661;45.700;4.880;2022-07-12T08:58:32;37.10;53.50
17092;DHT22;8661;45.700;4.880;2022-07-12T09:00:59;37.60;53.90
17092;DHT22;8661;45.700;4.880;2022-07-12T09:03:28;37.80;53.30
17092;DHT22;8661;45.700;4.880;2022-07-12T09:05:56;37.90;52.20
17092;DHT22;8661;45.700;4.880;2022-07-12T09:08:28;37.70;52.80
17092;DHT22;8661;45.700;4.880;2022-07-12T09:10:58;37.00;53.00
17092;DHT22;8661;45.700;4.880;2022-07-12T09:13:49;36.30;52.90
17092;DHT22;8661;45.700;4.880;2022-07-12T09:16:18;36.40;55.90
17092;DHT22;8661;45.700;4.880;2022-07-12T09:18:47;37.10;54.40
17092;DHT22;8661;45.700;4.880;2022-07-12T09:21:24;37.60;52.90
17092;DHT22;8661;45.700;4.880;2022-07-12T09:23:53;38.10;50.90
17092;DHT22;8661;45.700;4.880;2022-07-12T09:26:21;37.90;51.70
17092;DHT22;8661;45.700;4.880;2022-07-12T09:28:49;37.90;51.90
17092;DHT22;8661;45.700;4.880;2022-07-12T09:31:18;38.20;51.00
17092;DHT22;8661;45.700;4.880;2022-07-12T09:36:54;38.50;50.30
17092;DHT22;8661;45.700;4.880;2022-07-12T09:39:22;39.10;49.90
17092;DHT22;8661;45.700;4.880;2022-07-12T09:41:49;39.20;49.30
17092;DHT22;8661;45.700;4.880;2022-07-12T09:44:17;39.50;48.90
17092;DHT22;8661;45.700;4.880;2022-07-12T09:46:45;39.50;48.00
17092;DHT22;8661;45.700;4.880;2022-07-12T09:49:13;39.70;47.80
17092;DHT22;8661;45.700;4.880;2022-07-12T09:51:43;39.80;49.00
17092;DHT22;8661;45.700;4.880;2022-07-12T09:54:12;39.80;48.70
17092;DHT22;8661;45.700;4.880;2022-07-12T09:56:43;39.70;48.50
17092;DHT22;8661;45.700;4.880;2022-07-12T09:59:14;40.00;49.10
17092;DHT22;8661;45.700;4.880;2022-07-12T10:01:42;40.30;48.30
17092;DHT22;8661;45.700;4.880;2022-07-12T10:04:10;40.70;48.20
17092;DHT22;8661;45.700;4.880;2022-07-12T10:06:40;40.40;46.90
17092;DHT22;8661;45.700;4.880;2022-07-12T10:09:09;40.20;48.80
17092;DHT22;8661;45.700;4.880;2022-07-12T10:11:37;40.30;48.90
17092;DHT22;8661;45.700;4.880;2022-07-12T10:14:05;40.50;48.90
17092;DHT22;8661;45.700;4.880;2022-07-12T10:16:34;40.70;48.00
17092;DHT22;8661;45.700;4.880;2022-07-12T10:19:21;40.90;48.40
17092;DHT22;8661;45.700;4.880;2022-07-12T10:21:48;40.90;47.40
17092;DHT22;8661;45.700;4.880;2022-07-12T10:24:48;41.10;47.30
17092;DHT22;8661;45.700;4.880;2022-07-12T10:27:30;41.30;47.30
17092;DHT22;8661;45.700;4.880;2022-07-12T10:30:16;41.50;46.30
17092;DHT22;8661;45.700;4.880;2022-07-12T10:32:44;41.40;46.40
17092;DHT22;8661;45.700;4.880;2022-07-12T10:35:12;41.50;46.10
17092;DHT22;8661;45.700;4.880;2022-07-12T10:37:39;41.60;45.40
17092;DHT22;8661;45.700;4.880;2022-07-12T10:40:16;41.50;45.70
17092;DHT22;8661;45.700;4.880;2022-07-12T10:43:19;41.60;47.40
17092;DHT22;8661;45.700;4.880;2022-07-12T10:45:48;41.60;46.80
17092;DHT22;8661;45.700;4.880;2022-07-12T10:48:23;42.00;46.70
17092;DHT22;8661;45.700;4.880;2022-07-12T10:50:52;41.90;47.10
17092;DHT22;8661;45.700;4.880;2022-07-12T10:53:23;42.10;46.80
17092;DHT22;8661;45.700;4.880;2022-07-12T10:56:12;42.20;47.30
17092;DHT22;8661;45.700;4.880;2022-07-12T10:58:42;42.30;44.30
17092;DHT22;8661;45.700;4.880;2022-07-12T11:01:11;42.20;45.90
17092;DHT22;8661;45.700;4.880;2022-07-12T11:03:39;42.30;45.50
17092;DHT22;8661;45.700;4.880;2022-07-12T11:06:08;42.50;45.00
17092;DHT22;8661;45.700;4.880;2022-07-12T11:08:53;42.40;44.80
17092;DHT22;8661;45.700;4.880;2022-07-12T11:11:23;42.60;44.30
17092;DHT22;8661;45.700;4.880;2022-07-12T11:13:51;42.30;44.40
17092;DHT22;8661;45.700;4.880;2022-07-12T11:16:18;41.90;44.80
17092;DHT22;8661;45.700;4.880;2022-07-12T11:18:45;41.90;45.10
17092;DHT22;8661;45.700;4.880;2022-07-12T11:21:13;42.00;45.00
17092;DHT22;8661;45.700;4.880;2022-07-12T11:23:40;42.30;44.70
17092;DHT22;8661;45.700;4.880;2022-07-12T11:26:10;42.40;45.00
17092;DHT22;8661;45.700;4.880;2022-07-12T11:28:40;42.60;45.40
17092;DHT22;8661;45.700;4.880;2022-07-12T11:31:09;42.70;45.00
17092;DHT22;8661;45.700;4.880;2022-07-12T11:33:38;42.80;45.30
17092;DHT22;8661;45.700;4.880;2022-07-12T11:36:07;42.80;45.10
17092;DHT22;8661;45.700;4.880;2022-07-12T11:38:35;42.80;44.60
17092;DHT22;8661;45.700;4.880;2022-07-12T11:41:03;42.80;44.10
17092;DHT22;8661;45.700;4.880;2022-07-12T11:43:32;42.60;43.90
17092;DHT22;8661;45.700;4.880;2022-07-12T11:46:01;42.80;43.20
17092;DHT22;8661;45.700;4.880;2022-07-12T11:48:28;42.80;44.70
17092;DHT22;8661;45.700;4.880;2022-07-12T11:51:00;42.20;43.30
17092;DHT22;8661;45.700;4.880;2022-07-12T11:53:28;42.50;43.10
17092;DHT22;8661;45.700;4.880;2022-07-12T11:55:57;42.80;43.80
17092;DHT22;8661;45.700;4.880;2022-07-12T11:58:25;42.80;43.20
17092;DHT22;8661;45.700;4.880;2022-07-12T12:00:53;43.00;42.90
17092;DHT22;8661;45.700;4.880;2022-07-12T12:03:22;43.10;43.50
17092;DHT22;8661;45.700;4.880;2022-07-12T12:05:51;43.40;42.00
17092;DHT22;8661;45.700;4.880;2022-07-12T12:08:18;43.00;42.30
17092;DHT22;8661;45.700;4.880;2022-07-12T12:10:54;43.30;42.50
17092;DHT22;8661;45.700;4.880;2022-07-12T12:13:22;43.50;42.30
17092;DHT22;8661;45.700;4.880;2022-07-12T12:15:50;43.60;41.40
17092;DHT22;8661;45.700;4.880;2022-07-12T12:18:29;43.50;42.30
17092;DHT22;8661;45.700;4.880;2022-07-12T12:21:00;43.10;42.00
17092;DHT22;8661;45.700;4.880;2022-07-12T12:23:28;43.30;41.40
17092;DHT22;8661;45.700;4.880;2022-07-12T12:26:12;43.40;41.30
17092;DHT22;8661;45.700;4.880;2022-07-12T12:28:46;43.40;39.30
17092;DHT22;8661;45.700;4.880;2022-07-12T12:31:15;43.40;42.30
17092;DHT22;8661;45.700;4.880;2022-07-12T12:33:45;43.40;41.30
17092;DHT22;8661;45.700;4.880;2022-07-12T12:36:17;43.40;40.50
17092;DHT22;8661;45.700;4.880;2022-07-12T12:38:45;43.50;40.40
17092;DHT22;8661;45.700;4.880;2022-07-12T12:41:12;43.60;38.60
17092;DHT22;8661;45.700;4.880;2022-07-12T12:43:41;43.50;39.70
17092;DHT22;8661;45.700;4.880;2022-07-12T12:46:08;43.80;40.60
17092;DHT22;8661;45.700;4.880;2022-07-12T12:48:35;44.20;39.50
17092;DHT22;8661;45.700;4.880;2022-07-12T12:51:06;44.10;38.30
17092;DHT22;8661;45.700;4.880;2022-07-12T12:53:34;44.00;37.90
17092;DHT22;8661;45.700;4.880;2022-07-12T12:56:05;43.90;37.40
17092;DHT22;8661;45.700;4.880;2022-07-12T12:58:33;43.60;37.60
17092;DHT22;8661;45.700;4.880;2022-07-12T13:01:00;43.60;38.00
17092;DHT22;8661;45.700;4.880;2022-07-12T13:03:27;43.70;37.50
17092;DHT22;8661;45.700;4.880;2022-07-12T13:05:55;43.60;36.70
17092;DHT22;8661;45.700;4.880;2022-07-12T13:08:25;43.70;36.50
17092;DHT22;8661;45.700;4.880;2022-07-12T13:10:53;43.80;36.30
17092;DHT22;8661;45.700;4.880;2022-07-12T13:13:36;43.80;35.20
17092;DHT22;8661;45.700;4.880;2022-07-12T13:16:03;43.80;34.50
17092;DHT22;8661;45.700;4.880;2022-07-12T13:18:30;43.60;34.00
17092;DHT22;8661;45.700;4.880;2022-07-12T13:20:57;43.70;34.90
17092;DHT22;8661;45.700;4.880;2022-07-12T13:23:25;43.70;35.10
17092;DHT22;8661;45.700;4.880;2022-07-12T13:25:52;43.70;36.40
17092;DHT22;8661;45.700;4.880;2022-07-12T13:28:19;43.80;36.20
17092;DHT22;8661;45.700;4.880;2022-07-12T13:30:46;43.80;36.10
17092;DHT22;8661;45.700;4.880;2022-07-12T13:33:13;43.60;36.60
17092;DHT22;8661;45.700;4.880;2022-07-12T13:35:41;43.40;36.50
17092;DHT22;8661;45.700;4.880;2022-07-12T13:38:08;43.40;37.00
17092;DHT22;8661;45.700;4.880;2022-07-12T13:40:36;43.30;37.60
17092;DHT22;8661;45.700;4.880;2022-07-12T13:43:03;43.30;36.70
17092;DHT22;8661;45.700;4.880;2022-07-12T13:45:30;43.40;35.80
17092;DHT22;8661;45.700;4.880;2022-07-12T13:48:00;43.50;35.90
17092;DHT22;8661;45.700;4.880;2022-07-12T13:50:27;43.60;36.10
17092;DHT22;8661;45.700;4.880;2022-07-12T13:52:54;43.40;34.80
17092;DHT22;8661;45.700;4.880;2022-07-12T13:55:21;43.40;34.60
17092;DHT22;8661;45.700;4.880;2022-07-12T13:57:50;43.70;35.30
17092;DHT22;8661;45.700;4.880;2022-07-12T14:00:17;43.70;34.90
17092;DHT22;8661;45.700;4.880;2022-07-12T14:02:46;43.40;33.70
17092;DHT22;8661;45.700;4.880;2022-07-12T14:05:14;43.70;34.50
17092;DHT22;8661;45.700;4.880;2022-07-12T14:07:42;44.00;32.00
17092;DHT22;8661;45.700;4.880;2022-07-12T14:10:11;44.40;32.10
17092;DHT22;8661;45.700;4.880;2022-07-12T14:12:38;44.60;31.60
17092;DHT22;8661;45.700;4.880;2022-07-12T14:15:08;44.40;32.00
17092;DHT22;8661;45.700;4.880;2022-07-12T14:17:46;44.20;31.70
17092;DHT22;8661;45.700;4.880;2022-07-12T14:20:15;44.00;33.60
17092;DHT22;8661;45.700;4.880;2022-07-12T14:22:43;43.20;34.40
17092;DHT22;8661;45.700;4.880;2022-07-12T14:25:12;42.80;35.00
17092;DHT22;8661;45.700;4.880;2022-07-12T14:27:40;42.60;34.20
17092;DHT22;8661;45.700;4.880;2022-07-12T14:30:10;42.20;34.80
17092;DHT22;8661;45.700;4.880;2022-07-12T14:32:37;42.00;33.40
17092;DHT22;8661;45.700;4.880;2022-07-12T14:35:06;41.90;33.20
17092;DHT22;8661;45.700;4.880;2022-07-12T14:37:33;42.00;33.40
17092;DHT22;8661;45.700;4.880;2022-07-12T14:40:00;41.90;33.70
17092;DHT22;8661;45.700;4.880;2022-07-12T14:42:27;41.80;33.00
17092;DHT22;8661;45.700;4.880;2022-07-12T14:44:54;41.50;34.30
17092;DHT22;8661;45.700;4.880;2022-07-12T14:47:22;41.20;34.20
17092;DHT22;8661;45.700;4.880;2022-07-12T14:49:50;40.90;34.20
17092;DHT22;8661;45.700;4.880;2022-07-12T14:52:19;40.60;33.70
17092;DHT22;8661;45.700;4.880;2022-07-12T14:54:47;40.50;33.70
17092;DHT22;8661;45.700;4.880;2022-07-12T14:57:13;40.00;34.30
17092;DHT22;8661;45.700;4.880;2022-07-12T14:59:40;40.00;35.20
17092;DHT22;8661;45.700;4.880;2022-07-12T15:02:08;39.70;35.60
17092;DHT22;8661;45.700;4.880;2022-07-12T15:04:36;39.50;35.10
17092;DHT22;8661;45.700;4.880;2022-07-12T15:07:03;39.30;35.60
17092;DHT22;8661;45.700;4.880;2022-07-12T15:09:31;39.20;35.70
17092;DHT22;8661;45.700;4.880;2022-07-12T15:11:58;38.90;37.10
17092;DHT22;8661;45.700;4.880;2022-07-12T15:14:25;38.70;36.80
17092;DHT22;8661;45.700;4.880;2022-07-12T15:16:51;38.30;37.20
17092;DHT22;8661;45.700;4.880;2022-07-12T15:19:18;38.20;37.20
17092;DHT22;8661;45.700;4.880;2022-07-12T15:21:47;38.00;38.10
17092;DHT22;8661;45.700;4.880;2022-07-12T15:24:14;37.90;38.60
17092;DHT22;8661;45.700;4.880;2022-07-12T15:26:41;37.90;38.50
17092;DHT22;8661;45.700;4.880;2022-07-12T15:29:08;37.40;38.80
17092;DHT22;8661;45.700;4.880;2022-07-12T15:31:35;37.20;39.30
17092;DHT22;8661;45.700;4.880;2022-07-12T15:34:02;36.90;39.20
17092;DHT22;8661;45.700;4.880;2022-07-12T15:36:28;36.60;39.40
17092;DHT22;8661;45.700;4.880;2022-07-12T15:38:57;36.20;39.70
17092;DHT22;8661;45.700;4.880;2022-07-12T15:41:24;36.20;39.40
17092;DHT22;8661;45.700;4.880;2022-07-12T15:43:51;36.20;39.20
17092;DHT22;8661;45.700;4.880;2022-07-12T15:46:18;36.20;39.60
17092;DHT22;8661;45.700;4.880;2022-07-12T15:48:45;35.90;40.40
17092;DHT22;8661;45.700;4.880;2022-07-12T15:51:12;35.60;40.60
17092;DHT22;8661;45.700;4.880;2022-07-12T15:53:39;35.40;40.70
17092;DHT22;8661;45.700;4.880;2022-07-12T15:56:08;35.30;41.00